sensor_id;sensor_type;location;lat;lon;timestamp;P1;durP1;ratioP1;P2;durP2;ratioP2
10769;SDS011;5437;50.852;4.438;2023-02-28T00:01:38;6.25;;;5.30;;
10769;SDS011;5437;50.852;4.438;2023-02-28T00:04:04;6.35;;;5.68;;
10769;SDS011;5437;50.852;4.438;2023-02-28T00:06:30;6.25;;;5.43;;
10769;SDS011;5437;50.852;4.438;2023-02-28T00:08:56;8.65;;;5.43;;
10769;SDS011;5437;50.852;4.438;2023-02-28T00:11:22;6.60;;;5.22;;
10769;SDS011;5437;50.852;4.438;2023-02-28T00:13:48;5.28;;;4.78;;
10769;SDS011;5437;50.852;4.438;2023-02-28T00:16:16;6.35;;;5.22;;
10769;SDS011;5437;50.852;4.438;2023-02-28T00:18:42;6.88;;;5.10;;
10769;SDS011;5437;50.852;4.438;2023-02-28T00:21:08;7.15;;;4.82;;
10769;SDS011;5437;50.852;4.438;2023-02-28T00:23:35;6.20;;;5.32;;
10769;SDS011;5437;50.852;4.438;2023-02-28T00:26:01;5.47;;;4.97;;
10769;SDS011;5437;50.852;4.438;2023-02-28T00:28:27;6.88;;;5.20;;
10769;SDS011;5437;50.852;4.438;2023-02-28T00:30:53;7.25;;;4.80;;
10769;SDS011;5437;50.852;4.438;2023-02-28T00:33:19;8.63;;;4.97;;
10769;SDS011;5437;50.852;4.438;2023-02-28T00:35:45;5.93;;;5.18;;
10769;SDS011;5437;50.852;4.438;2023-02-28T00:38:12;7.10;;;4.95;;
10769;SDS011;5437;50.852;4.438;2023-02-28T00:40:38;6.70;;;5.20;;
10769;SDS011;5437;50.852;4.438;2023-02-28T00:43:04;5.97;;;4.88;;
10769;SDS011;5437;50.852;4.438;2023-02-28T00:45:30;6.25;;;5.25;;
10769;SDS011;5437;50.852;4.438;2023-02-28T00:47:56;5.88;;;5.28;;
10769;SDS011;5437;50.852;4.438;2023-02-28T00:50:22;5.28;;;4.78;;
10769;SDS011;5437;50.852;4.438;2023-02-28T00:52:48;5.63;;;5.13;;
10769;SDS011;5437;50.852;4.438;2023-02-28T00:55:15;6.90;;;5.00;;
10769;SDS011;5437;50.852;4.438;2023-02-28T00:57:41;5.93;;;5.22;;
10769;SDS011;5437;50.852;4.438;2023-02-28T01:00:07;8.27;;;5.93;;
10769;SDS011;5437;50.852;4.438;2023-02-28T01:02:35;7.40;;;5.15;;
10769;SDS011;5437;50.852;4.438;2023-02-28T01:05:02;6.25;;;5.35;;
10769;SDS011;5437;50.852;4.438;2023-02-28T01:07:28;5.20;;;4.70;;
10769;SDS011;5437;50.852;4.438;2023-02-28T01:09:54;6.95;;;6.07;;
10769;SDS011;5437;50.852;4.438;2023-02-28T01:12:20;8.23;;;5.35;;
10769;SDS011;5437;50.852;4.438;2023-02-28T01:14:46;7.15;;;5.55;;
10769;SDS011;5437;50.852;4.438;2023-02-28T01:17:12;6.97;;;5.18;;
10769;SDS011;5437;50.852;4.438;2023-02-28T01:19:38;6.30;;;5.00;;
10769;SDS011;5437;50.852;4.438;2023-02-28T01:22:05;7.15;;;5.25;;
10769;SDS011;5437;50.852;4.438;2023-02-28T01:24:31;9.02;;;5.80;;
10769;SDS011;5437;50.852;4.438;2023-02-28T01:26:57;8.23;;;5.60;;
10769;SDS011;5437;50.852;4.438;2023-02-28T01:29:24;6.50;;;5.60;;
10769;SDS011;5437;50.852;4.438;2023-02-28T01:31:50;7.60;;;5.53;;
10769;SDS011;5437;50.852;4.438;2023-02-28T01:34:17;6.63;;;5.40;;
10769;SDS011;5437;50.852;4.438;2023-02-28T01:36:44;6.22;;;5.60;;
10769;SDS011;5437;50.852;4.438;2023-02-28T01:39:10;9.27;;;5.53;;
10769;SDS011;5437;50.852;4.438;2023-02-28T01:41:37;7.35;;;5.70;;
10769;SDS011;5437;50.852;4.438;2023-02-28T01:44:54;8.32;;;5.22;;
10769;SDS011;5437;50.852;4.438;2023-02-28T01:46:53;9.32;;;5.97;;
10769;SDS011;5437;50.852;4.438;2023-02-28T01:49:19;6.60;;;5.80;;
10769;SDS011;5437;50.852;4.438;2023-02-28T01:51:46;7.55;;;5.93;;
10769;SDS011;5437;50.852;4.438;2023-02-28T01:54:19;6.35;;;5.65;;
10769;SDS011;5437;50.852;4.438;2023-02-28T01:56:48;7.90;;;6.18;;
10769;SDS011;5437;50.852;4.438;2023-02-28T01:59:19;7.80;;;6.10;;
10769;SDS011;5437;50.852;4.438;2023-02-28T02:01:47;5.97;;;5.40;;
10769;SDS011;5437;50.852;4.438;2023-02-28T02:04:14;7.45;;;5.75;;
10769;SDS011;5437;50.852;4.438;2023-02-28T02:06:40;7.93;;;5.68;;
10769;SDS011;5437;50.852;4.438;2023-02-28T02:09:08;6.80;;;5.90;;
10769;SDS011;5437;50.852;4.438;2023-02-28T02:11:34;8.30;;;6.03;;
10769;SDS011;5437;50.852;4.438;2023-02-28T02:21:47;7.07;;;6.38;;
10769;SDS011;5437;50.852;4.438;2023-02-28T02:39:19;9.25;;;6.07;;
10769;SDS011;5437;50.852;4.438;2023-02-28T02:41:49;7.43;;;6.18;;
10769;SDS011;5437;50.852;4.438;2023-02-28T02:46:47;7.55;;;6.40;;
10769;SDS011;5437;50.852;4.438;2023-02-28T02:49:15;7.97;;;6.60;;
10769;SDS011;5437;50.852;4.438;2023-02-28T02:51:42;8.80;;;6.57;;
10769;SDS011;5437;50.852;4.438;2023-02-28T02:54:11;9.63;;;7.25;;
10769;SDS011;5437;50.852;4.438;2023-02-28T02:56:40;7.65;;;6.85;;
10769;SDS011;5437;50.852;4.438;2023-02-28T02:59:08;8.30;;;7.20;;
10769;SDS011;5437;50.852;4.438;2023-02-28T03:01:35;8.18;;;7.22;;
10769;SDS011;5437;50.852;4.438;2023-02-28T03:04:04;9.70;;;7.00;;
10769;SDS011;5437;50.852;4.438;2023-02-28T03:06:31;9.82;;;7.22;;
10769;SDS011;5437;50.852;4.438;2023-02-28T03:08:57;8.52;;;7.18;;
10769;SDS011;5437;50.852;4.438;2023-02-28T03:11:23;8.82;;;6.88;;
10769;SDS011;5437;50.852;4.438;2023-02-28T03:19:03;8.48;;;7.30;;
10769;SDS011;5437;50.852;4.438;2023-02-28T03:21:40;8.50;;;7.18;;
10769;SDS011;5437;50.852;4.438;2023-02-28T03:24:10;8.27;;;7.07;;
10769;SDS011;5437;50.852;4.438;2023-02-28T03:26:42;8.60;;;7.18;;
10769;SDS011;5437;50.852;4.438;2023-02-28T03:31:44;8.05;;;7.07;;
10769;SDS011;5437;50.852;4.438;2023-02-28T03:34:14;8.13;;;7.07;;
10769;SDS011;5437;50.852;4.438;2023-02-28T03:36:44;7.75;;;6.93;;
10769;SDS011;5437;50.852;4.438;2023-02-28T03:39:14;8.60;;;7.70;;
10769;SDS011;5437;50.852;4.438;2023-02-28T03:41:42;10.18;;;7.68;;
10769;SDS011;5437;50.852;4.438;2023-02-28T03:44:14;10.25;;;7.68;;
10769;SDS011;5437;50.852;4.438;2023-02-28T03:46:47;9.25;;;7.13;;
10769;SDS011;5437;50.852;4.438;2023-02-28T03:49:18;7.93;;;7.10;;
10769;SDS011;5437;50.852;4.438;2023-02-28T03:51:46;8.93;;;7.53;;
10769;SDS011;5437;50.852;4.438;2023-02-28T03:54:13;9.48;;;7.63;;
10769;SDS011;5437;50.852;4.438;2023-02-28T03:56:48;10.60;;;7.63;;
10769;SDS011;5437;50.852;4.438;2023-02-28T04:01:49;10.13;;;7.80;;
10769;SDS011;5437;50.852;4.438;2023-02-28T04:04:16;10.10;;;7.85;;
10769;SDS011;5437;50.852;4.438;2023-02-28T04:06:43;9.30;;;7.70;;
10769;SDS011;5437;50.852;4.438;2023-02-28T04:09:10;9.60;;;8.13;;
10769;SDS011;5437;50.852;4.438;2023-02-28T04:11:43;10.90;;;8.07;;
10769;SDS011;5437;50.852;4.438;2023-02-28T04:14:10;9.82;;;8.20;;
10769;SDS011;5437;50.852;4.438;2023-02-28T04:16:38;13.10;;;8.48;;
10769;SDS011;5437;50.852;4.438;2023-02-28T04:19:05;11.30;;;8.43;;
10769;SDS011;5437;50.852;4.438;2023-02-28T04:21:33;10.80;;;7.93;;
10769;SDS011;5437;50.852;4.438;2023-02-28T04:23:59;8.95;;;8.02;;
10769;SDS011;5437;50.852;4.438;2023-02-28T04:26:28;9.70;;;8.27;;
10769;SDS011;5437;50.852;4.438;2023-02-28T04:28:54;10.00;;;7.93;;
10769;SDS011;5437;50.852;4.438;2023-02-28T04:31:21;12.15;;;8.57;;
10769;SDS011;5437;50.852;4.438;2023-02-28T04:33:47;10.20;;;8.40;;
10769;SDS011;5437;50.852;4.438;2023-02-28T04:36:13;9.55;;;8.13;;
10769;SDS011;5437;50.852;4.438;2023-02-28T04:38:39;10.40;;;8.55;;
10769;SDS011;5437;50.852;4.438;2023-02-28T04:41:05;10.68;;;9.00;;
10769;SDS011;5437;50.852;4.438;2023-02-28T04:43:32;11.18;;;8.55;;
10769;SDS011;5437;50.852;4.438;2023-02-28T04:46:00;11.32;;;8.80;;
10769;SDS011;5437;50.852;4.438;2023-02-28T04:48:27;10.18;;;8.85;;
10769;SDS011;5437;50.852;4.438;2023-02-28T04:50:54;9.82;;;8.25;;
10769;SDS011;5437;50.852;4.438;2023-02-28T04:53:20;11.15;;;8.40;;
10769;SDS011;5437;50.852;4.438;2023-02-28T04:55:46;13.25;;;8.27;;
10769;SDS011;5437;50.852;4.438;2023-02-28T04:58:12;13.07;;;8.93;;
10769;SDS011;5437;50.852;4.438;2023-02-28T05:00:39;12.02;;;8.77;;
10769;SDS011;5437;50.852;4.438;2023-02-28T05:03:05;11.88;;;9.23;;
10769;SDS011;5437;50.852;4.438;2023-02-28T05:05:31;12.60;;;9.32;;
10769;SDS011;5437;50.852;4.438;2023-02-28T05:07:57;13.13;;;9.60;;
10769;SDS011;5437;50.852;4.438;2023-02-28T05:10:23;12.52;;;9.18;;
10769;SDS011;5437;50.852;4.438;2023-02-28T05:12:49;11.30;;;8.80;;
10769;SDS011;5437;50.852;4.438;2023-02-28T05:15:16;10.88;;;9.10;;
10769;SDS011;5437;50.852;4.438;2023-02-28T05:17:42;11.73;;;9.23;;
10769;SDS011;5437;50.852;4.438;2023-02-28T05:20:08;11.07;;;8.68;;
10769;SDS011;5437;50.852;4.438;2023-02-28T05:22:41;12.23;;;8.73;;
10769;SDS011;5437;50.852;4.438;2023-02-28T05:25:09;10.38;;;8.52;;
10769;SDS011;5437;50.852;4.438;2023-02-28T05:27:37;9.60;;;8.43;;
10769;SDS011;5437;50.852;4.438;2023-02-28T05:30:03;10.35;;;9.23;;
10769;SDS011;5437;50.852;4.438;2023-02-28T05:32:29;10.10;;;8.90;;
10769;SDS011;5437;50.852;4.438;2023-02-28T05:34:55;10.75;;;8.85;;
10769;SDS011;5437;50.852;4.438;2023-02-28T05:37:21;10.35;;;8.63;;
10769;SDS011;5437;50.852;4.438;2023-02-28T05:39:47;13.65;;;9.27;;
10769;SDS011;5437;50.852;4.438;2023-02-28T05:42:13;11.68;;;8.77;;
10769;SDS011;5437;50.852;4.438;2023-02-28T05:44:39;13.88;;;9.35;;
10769;SDS011;5437;50.852;4.438;2023-02-28T05:47:05;14.77;;;9.40;;
10769;SDS011;5437;50.852;4.438;2023-02-28T05:49:31;14.15;;;9.55;;
10769;SDS011;5437;50.852;4.438;2023-02-28T05:51:57;10.98;;;8.85;;
10769;SDS011;5437;50.852;4.438;2023-02-28T05:54:23;11.75;;;9.80;;
10769;SDS011;5437;50.852;4.438;2023-02-28T05:56:49;13.40;;;9.05;;
10769;SDS011;5437;50.852;4.438;2023-02-28T05:59:15;9.95;;;8.20;;
10769;SDS011;5437;50.852;4.438;2023-02-28T06:01:42;10.88;;;8.40;;
10769;SDS011;5437;50.852;4.438;2023-02-28T06:04:17;11.15;;;9.07;;
10769;SDS011;5437;50.852;4.438;2023-02-28T06:06:47;13.50;;;8.55;;
10769;SDS011;5437;50.852;4.438;2023-02-28T06:09:14;11.65;;;8.95;;
10769;SDS011;5437;50.852;4.438;2023-02-28T06:11:40;11.73;;;8.70;;
10769;SDS011;5437;50.852;4.438;2023-02-28T06:14:06;13.20;;;8.73;;
10769;SDS011;5437;50.852;4.438;2023-02-28T06:16:33;11.77;;;8.82;;
10769;SDS011;5437;50.852;4.438;2023-02-28T06:19:00;11.48;;;8.10;;
10769;SDS011;5437;50.852;4.438;2023-02-28T06:21:27;10.43;;;8.77;;
10769;SDS011;5437;50.852;4.438;2023-02-28T06:23:53;10.38;;;8.85;;
10769;SDS011;5437;50.852;4.438;2023-02-28T06:26:20;9.93;;;8.93;;
10769;SDS011;5437;50.852;4.438;2023-02-28T06:28:46;9.95;;;8.77;;
10769;SDS011;5437;50.852;4.438;2023-02-28T06:31:13;12.02;;;9.40;;
10769;SDS011;5437;50.852;4.438;2023-02-28T06:33:40;11.35;;;8.15;;
10769;SDS011;5437;50.852;4.438;2023-02-28T06:36:07;10.32;;;8.77;;
10769;SDS011;5437;50.852;4.438;2023-02-28T06:38:34;11.85;;;8.48;;
10769;SDS011;5437;50.852;4.438;2023-02-28T06:41:00;9.13;;;8.05;;
10769;SDS011;5437;50.852;4.438;2023-02-28T06:43:30;11.70;;;8.63;;
10769;SDS011;5437;50.852;4.438;2023-02-28T06:45:57;11.60;;;8.50;;
10769;SDS011;5437;50.852;4.438;2023-02-28T06:48:24;12.02;;;8.18;;
10769;SDS011;5437;50.852;4.438;2023-02-28T06:50:50;11.00;;;8.50;;
10769;SDS011;5437;50.852;4.438;2023-02-28T06:53:16;11.18;;;8.90;;
10769;SDS011;5437;50.852;4.438;2023-02-28T06:55:42;11.93;;;8.60;;
10769;SDS011;5437;50.852;4.438;2023-02-28T06:58:08;10.00;;;8.68;;
10769;SDS011;5437;50.852;4.438;2023-02-28T07:00:41;9.40;;;8.40;;
10769;SDS011;5437;50.852;4.438;2023-02-28T07:03:08;10.65;;;8.57;;
10769;SDS011;5437;50.852;4.438;2023-02-28T07:05:35;11.68;;;8.68;;
10769;SDS011;5437;50.852;4.438;2023-02-28T07:08:01;10.88;;;8.55;;
10769;SDS011;5437;50.852;4.438;2023-02-28T07:10:28;11.18;;;8.63;;
10769;SDS011;5437;50.852;4.438;2023-02-28T07:12:54;11.95;;;9.13;;
10769;SDS011;5437;50.852;4.438;2023-02-28T07:15:20;12.13;;;8.95;;
10769;SDS011;5437;50.852;4.438;2023-02-28T07:17:46;10.57;;;8.93;;
10769;SDS011;5437;50.852;4.438;2023-02-28T07:20:12;8.85;;;7.95;;
10769;SDS011;5437;50.852;4.438;2023-02-28T07:22:38;11.40;;;8.52;;
10769;SDS011;5437;50.852;4.438;2023-02-28T07:25:04;8.77;;;7.88;;
10769;SDS011;5437;50.852;4.438;2023-02-28T07:27:31;10.63;;;8.00;;
10769;SDS011;5437;50.852;4.438;2023-02-28T07:29:57;10.48;;;7.70;;
10769;SDS011;5437;50.852;4.438;2023-02-28T07:32:26;11.65;;;8.30;;
10769;SDS011;5437;50.852;4.438;2023-02-28T07:34:52;10.55;;;8.35;;
10769;SDS011;5437;50.852;4.438;2023-02-28T07:37:18;10.75;;;8.15;;
10769;SDS011;5437;50.852;4.438;2023-02-28T07:39:44;11.13;;;7.85;;
10769;SDS011;5437;50.852;4.438;2023-02-28T07:42:10;10.50;;;8.10;;
10769;SDS011;5437;50.852;4.438;2023-02-28T07:44:40;10.23;;;7.88;;
10769;SDS011;5437;50.852;4.438;2023-02-28T07:47:10;11.43;;;8.20;;
10769;SDS011;5437;50.852;4.438;2023-02-28T07:49:36;10.38;;;7.78;;
10769;SDS011;5437;50.852;4.438;2023-02-28T07:52:03;10.43;;;7.78;;
10769;SDS011;5437;50.852;4.438;2023-02-28T07:54:29;10.88;;;8.98;;
10769;SDS011;5437;50.852;4.438;2023-02-28T07:56:55;12.68;;;7.97;;
10769;SDS011;5437;50.852;4.438;2023-02-28T07:59:21;9.80;;;7.03;;
10769;SDS011;5437;50.852;4.438;2023-02-28T08:01:47;9.73;;;7.03;;
10769;SDS011;5437;50.852;4.438;2023-02-28T08:04:15;7.97;;;6.78;;
10769;SDS011;5437;50.852;4.438;2023-02-28T08:06:41;10.68;;;7.20;;
10769;SDS011;5437;50.852;4.438;2023-02-28T08:09:07;9.68;;;7.07;;
10769;SDS011;5437;50.852;4.438;2023-02-28T08:11:33;8.88;;;6.78;;
10769;SDS011;5437;50.852;4.438;2023-02-28T08:13:59;7.65;;;6.70;;
10769;SDS011;5437;50.852;4.438;2023-02-28T08:16:25;10.88;;;6.80;;
10769;SDS011;5437;50.852;4.438;2023-02-28T08:18:51;8.52;;;7.13;;
10769;SDS011;5437;50.852;4.438;2023-02-28T08:21:18;7.22;;;6.30;;
10769;SDS011;5437;50.852;4.438;2023-02-28T08:23:46;10.50;;;6.65;;
10769;SDS011;5437;50.852;4.438;2023-02-28T08:26:12;6.97;;;5.78;;
10769;SDS011;5437;50.852;4.438;2023-02-28T08:28:38;7.28;;;5.68;;
10769;SDS011;5437;50.852;4.438;2023-02-28T08:31:09;9.27;;;6.47;;
10769;SDS011;5437;50.852;4.438;2023-02-28T08:33:35;6.82;;;5.82;;
10769;SDS011;5437;50.852;4.438;2023-02-28T08:36:01;7.72;;;5.18;;
10769;SDS011;5437;50.852;4.438;2023-02-28T08:38:27;7.22;;;5.88;;
10769;SDS011;5437;50.852;4.438;2023-02-28T08:40:57;5.90;;;4.78;;
10769;SDS011;5437;50.852;4.438;2023-02-28T08:43:24;5.90;;;5.03;;
10769;SDS011;5437;50.852;4.438;2023-02-28T08:45:53;6.47;;;5.20;;
10769;SDS011;5437;50.852;4.438;2023-02-28T08:48:21;8.57;;;5.47;;
10769;SDS011;5437;50.852;4.438;2023-02-28T08:53:25;5.57;;;5.05;;
10769;SDS011;5437;50.852;4.438;2023-02-28T08:56:05;5.68;;;5.03;;
10769;SDS011;5437;50.852;4.438;2023-02-28T08:58:32;7.63;;;5.20;;
10769;SDS011;5437;50.852;4.438;2023-02-28T09:00:59;8.48;;;5.03;;
10769;SDS011;5437;50.852;4.438;2023-02-28T09:03:25;8.73;;;5.03;;
10769;SDS011;5437;50.852;4.438;2023-02-28T09:05:58;5.25;;;4.75;;
10769;SDS011;5437;50.852;4.438;2023-02-28T09:08:25;6.75;;;4.45;;
10769;SDS011;5437;50.852;4.438;2023-02-28T09:10:52;6.10;;;4.95;;
10769;SDS011;5437;50.852;4.438;2023-02-28T09:13:19;7.55;;;4.43;;
10769;SDS011;5437;50.852;4.438;2023-02-28T09:15:45;5.03;;;4.53;;
10769;SDS011;5437;50.852;4.438;2023-02-28T09:18:12;4.55;;;3.95;;
10769;SDS011;5437;50.852;4.438;2023-02-28T09:20:38;4.70;;;4.30;;
10769;SDS011;5437;50.852;4.438;2023-02-28T09:23:05;3.85;;;3.42;;
10769;SDS011;5437;50.852;4.438;2023-02-28T09:25:31;6.00;;;3.70;;
10769;SDS011;5437;50.852;4.438;2023-02-28T09:27:57;5.72;;;3.97;;
10769;SDS011;5437;50.852;4.438;2023-02-28T09:30:23;3.95;;;3.60;;
10769;SDS011;5437;50.852;4.438;2023-02-28T09:32:49;5.93;;;3.40;;
10769;SDS011;5437;50.852;4.438;2023-02-28T09:35:18;3.70;;;3.30;;
10769;SDS011;5437;50.852;4.438;2023-02-28T09:37:46;4.57;;;3.35;;
10769;SDS011;5437;50.852;4.438;2023-02-28T09:40:12;4.47;;;3.35;;
10769;SDS011;5437;50.852;4.438;2023-02-28T09:42:39;4.35;;;3.10;;
10769;SDS011;5437;50.852;4.438;2023-02-28T09:45:06;4.13;;;2.78;;
10769;SDS011;5437;50.852;4.438;2023-02-28T09:47:38;3.38;;;3.08;;
10769;SDS011;5437;50.852;4.438;2023-02-28T09:50:48;3.22;;;3.00;;
10769;SDS011;5437;50.852;4.438;2023-02-28T09:52:54;2.97;;;2.60;;
10769;SDS011;5437;50.852;4.438;2023-02-28T09:55:33;3.25;;;2.95;;
10769;SDS011;5437;50.852;4.438;2023-02-28T09:58:01;3.25;;;2.95;;
10769;SDS011;5437;50.852;4.438;2023-02-28T10:00:34;2.90;;;2.60;;
10769;SDS011;5437;50.852;4.438;2023-02-28T10:03:15;3.15;;;2.90;;
10769;SDS011;5437;50.852;4.438;2023-02-28T10:05:52;3.28;;;2.95;;
10769;SDS011;5437;50.852;4.438;2023-02-28T10:08:21;3.55;;;2.70;;
10769;SDS011;5437;50.852;4.438;2023-02-28T10:10:51;3.88;;;2.60;;
10769;SDS011;5437;50.852;4.438;2023-02-28T10:15:47;2.60;;;2.40;;
10769;SDS011;5437;50.852;4.438;2023-02-28T10:18:15;2.55;;;2.35;;
10769;SDS011;5437;50.852;4.438;2023-02-28T10:20:42;2.78;;;2.53;;
10769;SDS011;5437;50.852;4.438;2023-02-28T10:23:11;2.92;;;2.38;;
10769;SDS011;5437;50.852;4.438;2023-02-28T10:25:38;2.67;;;2.47;;
10769;SDS011;5437;50.852;4.438;2023-02-28T10:30:34;3.45;;;2.15;;
10769;SDS011;5437;50.852;4.438;2023-02-28T10:33:00;2.45;;;2.25;;
10769;SDS011;5437;50.852;4.438;2023-02-28T10:35:26;2.63;;;2.08;;
10769;SDS011;5437;50.852;4.438;2023-02-28T10:37:54;2.08;;;1.95;;
10769;SDS011;5437;50.852;4.438;2023-02-28T10:43:00;2.50;;;2.00;;
10769;SDS011;5437;50.852;4.438;2023-02-28T10:45:26;2.15;;;1.95;;
10769;SDS011;5437;50.852;4.438;2023-02-28T10:52:52;2.00;;;1.90;;
10769;SDS011;5437;50.852;4.438;2023-02-28T10:55:23;2.30;;;1.80;;
10769;SDS011;5437;50.852;4.438;2023-02-28T10:57:50;1.95;;;1.83;;
10769;SDS011;5437;50.852;4.438;2023-02-28T11:00:21;2.83;;;2.00;;
10769;SDS011;5437;50.852;4.438;2023-02-28T11:02:47;2.90;;;2.00;;
10769;SDS011;5437;50.852;4.438;2023-02-28T11:05:30;2.03;;;1.92;;
10769;SDS011;5437;50.852;4.438;2023-02-28T11:07:59;2.40;;;2.20;;
10769;SDS011;5437;50.852;4.438;2023-02-28T11:10:30;3.28;;;2.20;;
10769;SDS011;5437;50.852;4.438;2023-02-28T11:12:59;3.13;;;2.28;;
10769;SDS011;5437;50.852;4.438;2023-02-28T11:15:26;2.20;;;2.00;;
10769;SDS011;5437;50.852;4.438;2023-02-28T11:17:56;2.60;;;2.40;;
10769;SDS011;5437;50.852;4.438;2023-02-28T11:20:23;2.95;;;2.33;;
10769;SDS011;5437;50.852;4.438;2023-02-28T11:22:50;2.90;;;2.47;;
10769;SDS011;5437;50.852;4.438;2023-02-28T11:25:21;2.58;;;2.30;;
10769;SDS011;5437;50.852;4.438;2023-02-28T11:27:49;2.40;;;2.17;;
10769;SDS011;5437;50.852;4.438;2023-02-28T11:30:26;2.13;;;1.95;;
10769;SDS011;5437;50.852;4.438;2023-02-28T11:32:53;2.30;;;2.10;;
10769;SDS011;5437;50.852;4.438;2023-02-28T11:35:27;2.90;;;1.95;;
10769;SDS011;5437;50.852;4.438;2023-02-28T11:37:54;3.83;;;2.10;;
10769;SDS011;5437;50.852;4.438;2023-02-28T11:40:23;2.40;;;2.20;;
10769;SDS011;5437;50.852;4.438;2023-02-28T11:43:08;3.63;;;2.10;;
10769;SDS011;5437;50.852;4.438;2023-02-28T11:48:16;2.70;;;2.50;;
10769;SDS011;5437;50.852;4.438;2023-02-28T11:56:03;2.70;;;2.50;;
10769;SDS011;5437;50.852;4.438;2023-02-28T11:58:38;2.60;;;2.40;;
10769;SDS011;5437;50.852;4.438;2023-02-28T12:01:11;2.85;;;2.55;;
10769;SDS011;5437;50.852;4.438;2023-02-28T12:08:41;3.63;;;2.50;;
10769;SDS011;5437;50.852;4.438;2023-02-28T12:13:43;2.40;;;2.20;;
10769;SDS011;5437;50.852;4.438;2023-02-28T12:24:03;3.55;;;2.30;;
10769;SDS011;5437;50.852;4.438;2023-02-28T12:26:42;3.63;;;2.22;;
10769;SDS011;5437;50.852;4.438;2023-02-28T12:29:20;2.50;;;2.30;;
10769;SDS011;5437;50.852;4.438;2023-02-28T12:32:11;2.40;;;2.20;;
10769;SDS011;5437;50.852;4.438;2023-02-28T12:34:36;3.03;;;2.40;;
10769;SDS011;5437;50.852;4.438;2023-02-28T12:37:14;4.30;;;2.40;;
10769;SDS011;5437;50.852;4.438;2023-02-28T12:39:44;3.22;;;2.38;;
10769;SDS011;5437;50.852;4.438;2023-02-28T12:42:17;2.70;;;2.50;;
10769;SDS011;5437;50.852;4.438;2023-02-28T12:44:46;2.72;;;2.35;;
10769;SDS011;5437;50.852;4.438;2023-02-28T12:47:15;2.65;;;2.45;;
10769;SDS011;5437;50.852;4.438;2023-02-28T12:49:44;2.75;;;2.53;;
10769;SDS011;5437;50.852;4.438;2023-02-28T12:52:11;3.88;;;2.33;;
10769;SDS011;5437;50.852;4.438;2023-02-28T12:54:45;2.80;;;2.60;;
10769;SDS011;5437;50.852;4.438;2023-02-28T12:57:15;2.83;;;2.58;;
10769;SDS011;5437;50.852;4.438;2023-02-28T13:10:11;2.85;;;2.63;;
10769;SDS011;5437;50.852;4.438;2023-02-28T13:12:42;3.33;;;2.50;;
10769;SDS011;5437;50.852;4.438;2023-02-28T13:17:44;2.97;;;2.67;;
10769;SDS011;5437;50.852;4.438;2023-02-28T13:20:17;2.55;;;2.33;;
10769;SDS011;5437;50.852;4.438;2023-02-28T13:22:45;3.08;;;2.75;;
10769;SDS011;5437;50.852;4.438;2023-02-28T13:27:56;2.63;;;2.42;;
10769;SDS011;5437;50.852;4.438;2023-02-28T13:38:34;2.65;;;2.10;;
10769;SDS011;5437;50.852;4.438;2023-02-28T13:46:31;2.90;;;2.65;;
10769;SDS011;5437;50.852;4.438;2023-02-28T13:51:44;2.83;;;2.60;;
10769;SDS011;5437;50.852;4.438;2023-02-28T13:54:24;3.00;;;2.70;;
10769;SDS011;5437;50.852;4.438;2023-02-28T13:59:38;3.25;;;2.50;;
10769;SDS011;5437;50.852;4.438;2023-02-28T14:05:19;3.05;;;2.78;;
10769;SDS011;5437;50.852;4.438;2023-02-28T14:07:28;4.32;;;3.08;;
10769;SDS011;5437;50.852;4.438;2023-02-28T14:09:57;3.00;;;2.72;;
10769;SDS011;5437;50.852;4.438;2023-02-28T14:17:55;2.67;;;2.45;;
10769;SDS011;5437;50.852;4.438;2023-02-28T14:20:21;5.63;;;2.47;;
10769;SDS011;5437;50.852;4.438;2023-02-28T14:25:22;3.15;;;2.85;;
10769;SDS011;5437;50.852;4.438;2023-02-28T14:30:52;2.88;;;2.50;;
10769;SDS011;5437;50.852;4.438;2023-02-28T14:38:29;3.45;;;2.95;;
10769;SDS011;5437;50.852;4.438;2023-02-28T14:40:56;3.30;;;3.00;;
10769;SDS011;5437;50.852;4.438;2023-02-28T14:43:23;2.83;;;2.58;;
10769;SDS011;5437;50.852;4.438;2023-02-28T14:45:51;3.22;;;2.92;;
10769;SDS011;5437;50.852;4.438;2023-02-28T14:48:18;4.18;;;3.78;;
10769;SDS011;5437;50.852;4.438;2023-02-28T14:50:49;3.92;;;3.03;;
10769;SDS011;5437;50.852;4.438;2023-02-28T14:53:17;3.20;;;2.90;;
10769;SDS011;5437;50.852;4.438;2023-02-28T14:55:44;4.53;;;2.97;;
10769;SDS011;5437;50.852;4.438;2023-02-28T14:58:27;3.17;;;2.88;;
10769;SDS011;5437;50.852;4.438;2023-02-28T15:00:55;4.22;;;2.72;;
10769;SDS011;5437;50.852;4.438;2023-02-28T15:03:37;5.28;;;3.25;;
10769;SDS011;5437;50.852;4.438;2023-02-28T15:08:30;3.35;;;3.03;;
10769;SDS011;5437;50.852;4.438;2023-02-28T15:11:01;4.03;;;3.20;;
10769;SDS011;5437;50.852;4.438;2023-02-28T15:16:04;4.40;;;3.47;;
10769;SDS011;5437;50.852;4.438;2023-02-28T15:21:31;3.30;;;3.10;;
10769;SDS011;5437;50.852;4.438;2023-02-28T15:23:54;3.53;;;3.22;;
10769;SDS011;5437;50.852;4.438;2023-02-28T15:26:22;3.90;;;3.58;;
10769;SDS011;5437;50.852;4.438;2023-02-28T15:28:55;4.00;;;3.60;;
10769;SDS011;5437;50.852;4.438;2023-02-28T15:31:27;4.72;;;3.45;;
10769;SDS011;5437;50.852;4.438;2023-02-28T15:33:54;3.20;;;3.00;;
10769;SDS011;5437;50.852;4.438;2023-02-28T15:36:20;3.72;;;3.42;;
10769;SDS011;5437;50.852;4.438;2023-02-28T15:38:50;3.40;;;3.10;;
10769;SDS011;5437;50.852;4.438;2023-02-28T15:41:27;3.45;;;3.00;;
10769;SDS011;5437;50.852;4.438;2023-02-28T15:46:37;3.20;;;2.90;;
10769;SDS011;5437;50.852;4.438;2023-02-28T15:49:04;3.10;;;2.90;;
10769;SDS011;5437;50.852;4.438;2023-02-28T15:51:32;3.22;;;2.85;;
10769;SDS011;5437;50.852;4.438;2023-02-28T15:56:26;3.58;;;3.28;;
10769;SDS011;5437;50.852;4.438;2023-02-28T15:58:53;4.88;;;2.95;;
10769;SDS011;5437;50.852;4.438;2023-02-28T16:01:23;3.72;;;3.33;;
10769;SDS011;5437;50.852;4.438;2023-02-28T16:03:50;3.50;;;3.20;;
10769;SDS011;5437;50.852;4.438;2023-02-28T16:06:23;4.70;;;3.40;;
10769;SDS011;5437;50.852;4.438;2023-02-28T16:08:50;3.53;;;3.08;;
10769;SDS011;5437;50.852;4.438;2023-02-28T16:11:18;3.63;;;3.00;;
10769;SDS011;5437;50.852;4.438;2023-02-28T16:13:44;3.40;;;3.00;;
10769;SDS011;5437;50.852;4.438;2023-02-28T16:16:14;3.58;;;3.28;;
10769;SDS011;5437;50.852;4.438;2023-02-28T16:18:40;3.30;;;3.03;;
10769;SDS011;5437;50.852;4.438;2023-02-28T16:21:08;4.57;;;3.45;;
10769;SDS011;5437;50.852;4.438;2023-02-28T16:23:34;4.50;;;3.10;;
10769;SDS011;5437;50.852;4.438;2023-02-28T16:26:00;3.63;;;3.15;;
10769;SDS011;5437;50.852;4.438;2023-02-28T16:28:33;3.38;;;3.13;;
10769;SDS011;5437;50.852;4.438;2023-02-28T16:31:00;3.70;;;3.40;;
10769;SDS011;5437;50.852;4.438;2023-02-28T16:33:31;4.70;;;3.13;;
10769;SDS011;5437;50.852;4.438;2023-02-28T16:35:57;3.33;;;2.97;;
10769;SDS011;5437;50.852;4.438;2023-02-28T16:38:23;3.28;;;2.97;;
10769;SDS011;5437;50.852;4.438;2023-02-28T16:40:50;3.10;;;2.83;;
10769;SDS011;5437;50.852;4.438;2023-02-28T16:43:17;3.83;;;3.00;;
10769;SDS011;5437;50.852;4.438;2023-02-28T16:45:44;3.70;;;3.20;;
10769;SDS011;5437;50.852;4.438;2023-02-28T16:48:12;4.07;;;2.97;;
10769;SDS011;5437;50.852;4.438;2023-02-28T16:50:39;3.00;;;2.70;;
10769;SDS011;5437;50.852;4.438;2023-02-28T16:53:05;3.33;;;3.03;;
10769;SDS011;5437;50.852;4.438;2023-02-28T16:55:31;3.15;;;2.60;;
10769;SDS011;5437;50.852;4.438;2023-02-28T16:57:58;3.38;;;3.08;;
10769;SDS011;5437;50.852;4.438;2023-02-28T17:00:25;4.90;;;2.90;;
10769;SDS011;5437;50.852;4.438;2023-02-28T17:02:52;4.13;;;3.25;;
10769;SDS011;5437;50.852;4.438;2023-02-28T17:05:19;3.95;;;3.15;;
10769;SDS011;5437;50.852;4.438;2023-02-28T17:07:45;3.40;;;3.10;;
10769;SDS011;5437;50.852;4.438;2023-02-28T17:10:13;3.80;;;3.22;;
10769;SDS011;5437;50.852;4.438;2023-02-28T17:12:40;3.97;;;3.10;;
10769;SDS011;5437;50.852;4.438;2023-02-28T17:15:06;4.55;;;3.13;;
10769;SDS011;5437;50.852;4.438;2023-02-28T17:17:32;4.28;;;2.50;;
10769;SDS011;5437;50.852;4.438;2023-02-28T17:19:59;3.63;;;3.20;;
10769;SDS011;5437;50.852;4.438;2023-02-28T17:22:25;3.05;;;2.80;;
10769;SDS011;5437;50.852;4.438;2023-02-28T17:24:51;3.53;;;2.70;;